Time;durP1;ratioP1;P1;durP2;ratioP2;P2;SDS_P1;SDS_P2;PMS_P1;PMS_P2;Temp;Humidity;BMP_temperature;BMP_pressure;BME280_temperature;BME280_humidity;BME280_pressure;Samples;Min_cycle;Max_cycle;Signal;HPM_P1;HPM_P2
2022/07/28 00:00:33;;;;;;;6.25;3.17;;;18.00;99.90;;;18.43;60.53;101894.03;5053778;28;20071;-66
2022/07/28 00:03:03;;;;;;;4.95;3.20;;;18.10;99.90;;;18.53;60.08;101904.56;5053462;28;20095;-66
2022/07/28 00:05:32;;;;;;;;;;;18.20;99.90;;;18.60;60.29;101899.97;5053955;28;20426;-65
2022/07/28 00:08:01;;;;;;;5.18;3.22;;;18.30;99.90;;;18.45;59.92;101894.91;5053510;28;20275;-65
2022/07/28 00:10:31;;;;;;;6.70;3.20;;;18.30;99.90;;;18.35;60.46;101887.94;5053448;28;20049;-65
2022/07/28 00:12:59;;;;;;;5.03;3.17;;;18.10;99.90;;;18.10;60.86;101884.84;5053471;28;20059;-66
2022/07/28 00:15:28;;;;;;;7.82;3.40;;;17.90;99.90;;;18.14;61.28;101883.00;5053263;28;20053;-66
2022/07/28 00:17:57;;;;;;;9.63;3.22;;;17.80;99.90;;;18.15;61.36;101891.00;5052205;28;20047;-65
2022/07/28 00:20:29;;;;;;;6.68;3.28;;;17.80;99.90;;;18.18;61.49;101890.94;5053643;28;20139;-66
2022/07/28 00:22:57;;;;;;;5.15;3.15;;;17.90;99.90;;;18.05;61.45;101889.41;5053366;28;20045;-67
2022/07/28 00:25:26;;;;;;;4.57;3.10;;;17.80;99.90;;;17.43;62.02;101791.50;5053181;28;20047;-66
2022/07/28 00:27:55;;;;;;;3.97;3.17;;;17.60;99.90;;;17.76;62.18;101881.03;5053428;28;20099;-66
2022/07/28 00:30:23;;;;;;;4.45;2.85;;;17.60;99.90;;;17.71;62.62;101885.59;5052974;28;20041;-66
2022/07/28 00:32:51;;;;;;;6.55;3.28;;;17.40;99.90;;;17.72;63.19;101869.50;5053571;28;20053;-66
2022/07/28 00:35:20;;;;;;;6.95;3.35;;;17.40;99.90;;;17.95;63.12;101871.75;5053073;28;20553;-66
2022/07/28 00:38:00;;;;;;;7.22;3.65;;;17.50;99.90;;;17.78;62.94;101863.16;5051722;28;20490;-66
2022/07/28 00:43:11;;;;;;;11.23;3.05;;;17.60;99.90;;;17.62;62.33;101784.94;5052672;28;20075;-66
2022/07/28 00:45:40;;;;;;;3.70;3.10;;;17.70;99.90;;;18.00;62.19;101877.94;5053039;28;20044;-66
2022/07/28 00:48:09;;;;;;;4.20;3.30;;;17.80;99.90;;;17.97;62.36;101883.31;5052765;28;20548;-66
2022/07/28 00:50:39;;;;;;;5.60;3.10;;;17.70;99.90;;;17.65;63.39;101883.03;5051820;28;20056;-66
2022/07/28 00:53:09;;;;;;;4.78;2.80;;;17.40;99.90;;;17.38;64.20;101881.63;5052908;28;20044;-66
2022/07/28 00:55:40;;;;;;;6.90;3.13;;;17.10;99.90;;;17.42;64.34;101882.50;5053403;28;20052;-66
2022/07/28 00:58:29;;;;;;;10.57;3.67;;;17.10;99.90;;;16.97;65.93;101871.59;5053118;28;20045;-66
2022/07/28 01:00:58;;;;;;;4.68;3.15;;;16.70;99.90;;;17.05;66.03;101879.50;5052577;28;20131;-66
2022/07/28 01:03:27;;;;;;;7.03;3.45;;;16.70;99.90;;;17.15;65.91;101879.31;5054084;28;20069;-66
2022/07/28 01:06:05;;;;;;;6.70;3.67;;;16.80;99.90;;;17.06;66.16;101870.56;5057046;28;20458;-67
2022/07/28 01:08:48;;;;;;;9.15;3.45;;;16.70;99.90;;;17.21;66.20;101874.81;5057179;28;20045;-65
2022/07/28 01:11:27;;;;;;;6.28;3.50;;;16.80;99.90;;;16.71;66.85;101838.09;5056935;28;20095;-65
2022/07/28 01:14:09;;;;;;;6.78;3.45;;;16.60;99.90;;;16.81;66.91;101840.63;5056788;28;20570;-66
2022/07/28 01:16:50;;;;;;;5.05;3.10;;;16.60;99.90;;;17.10;66.61;101875.84;5057303;28;20045;-65
2022/07/28 01:19:36;;;;;;;3.97;3.27;;;16.80;99.90;;;16.73;66.06;101802.44;5056798;28;20084;-65
2022/07/28 01:22:06;;;;;;;4.50;3.10;;;16.90;99.90;;;17.55;65.93;101876.06;5057020;28;20280;-66
2022/07/28 01:24:48;;;;;;;6.55;3.72;;;17.10;99.90;;;17.50;65.24;101837.81;5056996;28;20402;-65
2022/07/28 01:27:32;;;;;;;8.18;3.15;;;17.30;99.90;;;17.78;65.02;101855.13;5056663;28;20112;-65
2022/07/28 01:30:23;;;;;;;9.30;3.53;;;17.40;99.90;;;17.90;64.58;101863.78;5056433;28;20491;-65
2022/07/28 01:33:01;;;;;;;6.30;3.08;;;17.50;99.90;;;18.01;64.05;101856.47;5056495;28;20049;-66
2022/07/28 01:35:33;;;;;;;5.00;3.20;;;17.70;99.90;;;18.11;63.96;101857.16;5056510;28;20053;-66
2022/07/28 01:38:07;;;;;;;8.43;3.40;;;17.70;99.90;;;18.06;63.59;101828.72;5056740;28;20079;-66
2022/07/28 01:40:37;;;;;;;5.63;3.13;;;17.80;99.90;;;18.11;63.32;101851.81;5055434;28;20064;-66
2022/07/28 01:43:09;;;;;;;6.38;3.40;;;17.80;99.90;;;18.18;63.34;101848.09;5056317;28;20045;-66
2022/07/28 01:45:43;;;;;;;6.10;3.60;;;17.80;99.90;;;17.59;62.91;101728.81;5056862;28;20068;-66
2022/07/28 01:48:15;;;;;;;4.78;3.38;;;17.90;99.90;;;18.26;62.75;101846.13;5055246;28;20049;-65
2022/07/28 01:50:47;;;;;;;6.22;3.50;;;17.90;99.90;;;18.29;62.75;101851.41;5056196;28;20457;-66
2022/07/28 01:53:17;;;;;;;5.03;3.50;;;17.90;99.90;;;17.91;63.10;101838.81;5056360;28;20091;-67
2022/07/28 01:55:46;;;;;;;5.35;3.40;;;17.80;99.90;;;17.36;65.12;101839.78;5055000;28;20479;-66
2022/07/28 01:58:17;;;;;;;7.23;4.17;;;17.20;99.90;;;17.15;65.23;101838.31;5054933;28;20040;-65
2022/07/28 02:00:49;;;;;;;6.85;3.40;;;16.90;99.90;;;17.02;66.17;101831.41;5056203;28;20123;-66
2022/07/28 02:03:19;;;;;;;5.18;3.40;;;16.80;99.90;;;17.28;65.84;101834.56;5055973;28;20041;-65
2022/07/28 02:05:50;;;;;;;7.97;3.42;;;16.90;99.90;;;17.30;65.90;101837.22;5055835;28;20076;-65
2022/07/28 02:08:20;;;;;;;8.40;3.63;;;16.90;99.90;;;17.17;66.16;101822.28;5056004;28;20069;-65
2022/07/28 02:13:39;;;;;;;9.80;4.10;;;16.70;99.90;;;16.81;66.88;101824.59;5055298;28;20132;-66
2022/07/28 02:16:11;;;;;;;8.95;3.67;;;16.60;99.90;;;17.06;67.02;101833.13;5054538;28;20065;-65
2022/07/28 02:18:40;;;;;;;8.57;3.80;;;16.70;99.90;;;16.90;67.31;101823.56;5055689;28;20048;-65
2022/07/28 02:21:10;;;;;;;5.03;3.83;;;16.60;99.90;;;16.48;68.19;101809.03;5055673;28;20384;-66
2022/07/28 02:23:41;;;;;;;6.15;3.83;;;16.30;99.90;;;16.54;68.71;101811.63;5055792;28;20044;-65
2022/07/28 02:26:12;;;;;;;5.05;3.72;;;16.30;99.90;;;16.56;68.98;101824.97;5054589;28;20095;-65
2022/07/28 02:28:45;;;;;;;10.88;4.07;;;16.30;99.90;;;16.37;69.68;101832.31;5055468;28;20072;-65
2022/07/28 02:31:24;;;;;;;7.18;3.83;;;16.10;99.90;;;16.55;69.16;101824.06;5055492;28;20045;-65
2022/07/28 02:34:01;;;;;;;6.55;3.90;;;16.20;99.90;;;16.34;69.08;101786.94;5055709;28;20045;-65
2022/07/28 02:36:33;;;;;;;6.60;3.67;;;16.20;99.90;;;16.59;69.24;101832.94;5055387;28;20040;-65
2022/07/28 02:39:06;;;;;;;6.55;3.60;;;16.30;99.90;;;16.35;70.39;101817.19;5055398;28;20159;-65
2022/07/28 02:41:44;;;;;;;7.50;3.95;;;16.00;99.90;;;16.04;70.34;101809.59;5055287;28;20064;-65
2022/07/28 02:44:17;;;;;;;7.97;3.65;;;16.00;99.90;;;16.36;70.46;101817.19;5055694;28;20079;-66
2022/07/28 02:46:52;;;;;;;6.43;3.45;;;16.00;99.90;;;16.31;70.58;101818.16;5055215;28;20120;-65
2022/07/28 02:49:24;;;;;;;8.43;3.75;;;16.00;99.90;;;16.38;70.20;101810.03;5055073;28;20045;-65
2022/07/28 02:51:55;;;;;;;5.25;3.88;;;16.10;99.90;;;16.54;70.00;101819.66;5055095;28;20045;-66
2022/07/28 02:54:25;;;;;;;4.85;3.30;;;16.20;99.90;;;16.60;69.47;101810.66;5055075;28;20131;-66
2022/07/28 02:56:56;;;;;;;5.82;3.42;;;16.30;99.90;;;16.52;69.32;101801.88;5054970;28;20048;-66
2022/07/28 02:59:27;;;;;;;7.15;3.97;;;16.30;99.90;;;16.54;69.34;101810.75;5054804;28;20110;-65
2022/07/28 03:01:59;;;;;;;7.15;3.97;;;16.20;99.90;;;16.45;69.51;101814.41;5053867;28;20384;-65
2022/07/28 03:07:11;;;;;;;9.40;3.97;;;16.10;99.90;;;16.24;69.98;101822.66;5038450;28;20048;-65
2022/07/28 03:09:41;;;;;;;4.93;3.53;;;16.00;99.90;;;15.76;70.65;101769.88;5054659;28;20087;-65
2022/07/28 03:12:10;;;;;;;11.68;3.85;;;15.70;99.90;;;15.93;70.76;101805.28;5054477;28;20424;-66
2022/07/28 03:14:39;;;;;;;6.05;4.18;;;15.70;99.90;;;15.99;70.60;101816.75;5054911;28;20124;-66
2022/07/28 03:17:09;;;;;;;6.25;4.55;;;15.70;99.90;;;15.94;70.87;101817.69;5054515;28;20087;-65
2022/07/28 03:19:38;;;;;;;6.28;3.63;;;15.60;99.90;;;15.78;70.54;101786.75;5070318;28;20118;-65
2022/07/28 03:22:06;;;;;;;6.90;3.53;;;15.70;99.90;;;15.93;70.70;101815.94;5054459;28;20495;-65
2022/07/28 03:24:40;;;;;;;12.75;3.70;;;15.60;99.90;;;15.90;70.65;101816.84;5054520;28;20098;-65
2022/07/28 03:27:18;;;;;;;6.20;3.88;;;15.60;99.90;;;15.60;71.62;101816.28;5054447;28;20040;-66
2022/07/28 03:29:52;;;;;;;5.40;3.60;;;15.40;99.90;;;15.63;71.48;101810.91;5053106;28;20041;-66
2022/07/28 03:32:24;;;;;;;6.97;4.00;;;15.40;99.90;;;15.61;71.74;101834.06;5054672;28;20045;-65
2022/07/28 03:34:52;;;;;;;8.45;4.07;;;15.30;99.90;;;15.76;71.20;101818.78;5053310;28;20465;-65
2022/07/28 03:37:28;;;;;;;7.43;3.75;;;15.40;99.90;;;15.73;71.20;101824.16;5054148;28;20132;-65
2022/07/28 03:39:59;;;;;;;14.60;3.95;;;15.50;99.90;;;15.50;71.79;101817.28;5054417;28;20053;-66
2022/07/28 03:42:28;;;;;;;6.95;3.80;;;15.30;99.90;;;15.55;71.46;101797.66;5054096;28;20392;-66
2022/07/28 03:44:57;;;;;;;7.43;3.85;;;15.40;99.90;;;15.84;71.36;101827.59;5053983;28;20051;-65
2022/07/28 03:47:27;;;;;;;7.20;3.92;;;15.50;99.90;;;15.85;70.91;101834.69;5053883;28;20048;-66
2022/07/28 03:49:55;;;;;;;10.40;4.07;;;15.50;99.90;;;15.93;70.57;101829.28;5053830;28;20051;-65
2022/07/28 03:52:24;;;;;;;11.75;4.65;;;15.60;99.90;;;15.81;70.77;101829.41;5053919;28;20048;-65
2022/07/28 03:54:53;;;;;;;8.95;4.57;;;15.60;99.90;;;15.84;70.90;101848.03;5052435;28;20049;-66
2022/07/28 03:57:23;;;;;;;6.50;3.92;;;15.60;99.90;;;15.77;70.95;101846.34;5054008;28;20156;-66
2022/07/28 03:59:51;;;;;;;5.90;4.32;;;15.50;99.90;;;15.63;71.24;101822.47;5053656;28;20051;-66
2022/07/28 04:02:22;;;;;;;7.68;3.90;;;15.40;99.90;;;15.67;71.46;101839.34;5053535;28;20102;-66
2022/07/28 04:04:52;;;;;;;7.05;4.28;;;15.40;99.90;;;15.71;71.70;101841.97;5053920;28;20037;-65
2022/07/28 04:07:21;;;;;;;8.93;4.50;;;15.40;99.90;;;15.64;71.30;101842.03;5053843;28;20037;-65
2022/07/28 04:09:49;;;;;;;13.23;4.80;;;15.40;99.90;;;15.64;71.50;101839.38;5053671;28;20765;-68
2022/07/28 04:12:17;;;;;;;6.55;4.65;;;15.40;99.90;;;15.47;71.83;101834.19;5053422;28;20033;-68
2022/07/28 04:14:46;;;;;;;7.65;4.25;;;15.30;99.90;;;15.33;72.09;101804.03;5053419;28;20099;-66
2022/07/28 04:17:14;;;;;;;6.72;4.03;;;15.20;99.90;;;15.57;71.88;101837.66;5053382;28;20041;-68
2022/07/28 04:19:42;;;;;;;7.18;4.20;;;15.30;99.90;;;15.59;71.70;101838.50;5053626;28;20045;-65
2022/07/28 04:22:12;;;;;;;9.63;4.25;;;15.30;99.90;;;15.65;71.75;101838.47;5053810;28;20475;-67
2022/07/28 04:24:40;;;;;;;6.93;3.88;;;15.30;99.90;;;15.55;72.18;101842.09;5053514;28;20457;-67
2022/07/28 04:27:09;;;;;;;7.43;4.65;;;15.30;99.90;;;15.69;71.23;101838.44;5053735;28;20033;-68
2022/07/28 04:29:38;;;;;;;12.07;4.13;;;15.40;99.90;;;15.62;71.03;101833.16;5053571;28;20076;-68
2022/07/28 04:32:06;;;;;;;10.05;4.47;;;15.40;99.90;;;15.59;71.54;101835.84;5053396;28;20047;-68
2022/07/28 04:34:35;;;;;;;8.73;4.07;;;15.30;99.90;;;15.70;71.13;101836.66;5053492;28;20095;-68
2022/07/28 04:37:04;;;;;;;9.00;4.15;;;15.40;99.90;;;15.65;71.54;101841.13;5053209;28;20124;-69
2022/07/28 04:39:34;;;;;;;6.32;4.00;;;15.30;99.90;;;15.73;71.12;101802.81;5052840;28;20099;-68
2022/07/28 04:42:02;;;;;;;7.15;3.78;;;15.50;99.90;;;15.72;70.65;101802.81;5053233;28;20037;-68
2022/07/28 04:44:31;;;;;;;7.93;3.95;;;15.60;99.90;;;15.94;70.60;101829.25;5053457;28;20071;-68
2022/07/28 04:46:59;;;;;;;8.85;4.22;;;15.70;99.90;;;16.06;70.10;101820.22;5053512;28;20041;-68
2022/07/28 04:49:30;;;;;;;7.68;4.35;;;15.80;99.90;;;15.73;70.50;101833.94;5052926;28;20073;-68
2022/07/28 04:52:03;;;;;;;8.40;4.20;;;15.60;99.90;;;15.71;70.59;101831.28;5053463;28;20044;-68
2022/07/28 04:54:32;;;;;;;8.18;4.65;;;15.50;99.90;;;15.74;70.80;101825.03;5053099;28;20047;-68
2022/07/28 04:57:01;;;;;;;9.85;3.85;;;15.40;99.90;;;15.79;69.95;101834.78;5051833;28;20099;-69
2022/07/28 04:59:37;;;;;;;7.28;4.28;;;15.60;99.90;;;15.55;70.99;101831.44;5052646;28;20090;-68
2022/07/28 05:02:06;;;;;;;7.85;3.97;;;15.40;99.90;;;14.99;70.86;101704.88;5053062;28;20169;-68
2022/07/28 05:04:34;;;;;;;7.18;4.03;;;15.40;99.90;;;15.55;71.31;101836.78;5052674;28;20387;-68
2022/07/28 05:07:03;;;;;;;7.20;4.10;;;15.30;99.90;;;15.78;71.55;101830.31;5052937;28;20057;-68
2022/07/28 05:09:41;;;;;;;6.13;4.13;;;15.40;99.90;;;15.80;71.27;101831.19;5052955;28;20114;-69
2022/07/28 05:12:10;;;;;;;7.93;4.22;;;15.50;99.90;;;15.85;70.50;101828.47;5053059;28;20445;-68
2022/07/28 05:14:39;;;;;;;5.57;4.43;;;15.60;99.90;;;15.82;71.09;101840.06;5051699;28;20045;-68
2022/07/28 05:17:07;;;;;;;9.18;4.78;;;15.50;99.90;;;15.82;71.05;101810.72;5052981;28;20049;-69
2022/07/28 05:19:37;;;;;;;7.53;4.38;;;15.60;99.90;;;15.31;72.74;101822.72;5052649;28;20045;-68
2022/07/28 05:22:06;;;;;;;6.15;4.40;;;15.20;99.90;;;15.44;72.26;101796.00;5052707;28;20053;-69
2022/07/28 05:24:34;;;;;;;7.20;4.25;;;15.20;99.90;;;15.56;71.85;101833.22;5052610;28;20072;-69
2022/07/28 05:27:04;;;;;;;8.90;4.25;;;15.20;99.90;;;15.53;72.11;101841.22;5051527;28;20437;-69
2022/07/28 05:29:33;;;;;;;7.88;3.80;;;15.20;99.90;;;15.43;72.45;101842.25;5052448;28;20041;-69
2022/07/28 05:32:14;;;;;;;8.30;4.18;;;15.20;99.90;;;15.38;72.64;101844.91;5051585;28;20060;-69
2022/07/28 05:34:44;;;;;;;;;;;15.10;99.90;;;15.16;73.85;101829.97;5053304;28;20045;-69
2022/07/28 05:37:13;;;;;;;5.82;4.00;;;15.00;99.90;;;15.40;73.20;101840.44;5052481;28;20336;-68
2022/07/28 05:39:41;;;;;;;9.55;4.65;;;15.10;99.90;;;15.50;73.09;101846.59;5052461;28;20041;-68
2022/07/28 05:42:11;;;;;;;5.88;4.57;;;15.10;99.90;;;15.49;72.86;101837.72;5052935;28;20559;-68
2022/07/28 05:44:39;;;;;;;6.47;4.38;;;15.20;99.90;;;15.76;71.84;101849.91;5052381;28;20045;-68
2022/07/28 05:47:07;;;;;;;9.13;4.63;;;15.40;99.90;;;15.55;72.07;101807.44;5052544;28;20473;-68
2022/07/28 05:49:37;;;;;;;7.75;4.35;;;15.40;99.90;;;15.99;71.03;101839.88;5053650;28;20067;-68
2022/07/28 05:52:06;;;;;;;8.90;3.80;;;15.60;99.90;;;15.97;70.70;101855.00;5056150;28;20044;-68
2022/07/28 05:54:34;;;;;;;9.52;3.88;;;15.70;99.90;;;15.97;70.85;101836.34;5056242;28;20045;-68
2022/07/28 05:57:03;;;;;;;9.23;4.07;;;15.70;99.90;;;16.08;70.47;101840.69;5056187;28;20045;-68
2022/07/28 05:59:33;;;;;;;6.53;3.90;;;15.80;99.90;;;16.17;69.97;101843.22;5055986;28;20044;-68
2022/07/28 06:02:03;;;;;;;10.65;3.90;;;15.90;99.90;;;16.11;69.73;101842.41;5055939;28;20044;-68
2022/07/28 06:04:31;;;;;;;6.70;3.92;;;15.90;99.90;;;16.11;70.08;101837.97;5088138;28;20406;-68
2022/07/28 06:07:00;;;;;;;9.10;4.40;;;15.80;99.90;;;16.04;70.15;101838.06;5055658;28;20052;-68
2022/07/28 06:09:29;;;;;;;12.15;4.30;;;15.80;99.90;;;15.97;70.73;101844.34;5055580;28;20055;-68
2022/07/28 06:11:57;;;;;;;10.45;4.00;;;15.80;99.90;;;16.22;70.84;101845.81;5055686;28;20075;-69
2022/07/28 06:14:26;;;;;;;9.57;4.43;;;15.80;99.90;;;15.63;70.17;101736.22;5055661;28;20127;-68
2022/07/28 06:16:56;;;;;;;13.20;4.40;;;15.90;99.90;;;16.22;70.77;101845.81;5055823;28;20449;-68
2022/07/28 06:19:24;;;;;;;12.13;4.25;;;16.00;99.90;;;15.93;71.52;101846.16;5055747;28;20072;-68
2022/07/28 06:21:53;;;;;;;5.40;3.95;;;15.70;99.90;;;16.02;72.01;101843.41;5055632;28;20068;-68
2022/07/28 06:24:21;;;;;;;13.20;4.28;;;15.70;99.90;;;16.38;70.41;101844.75;5054453;28;20045;-68
2022/07/28 06:26:51;;;;;;;9.95;4.43;;;16.00;99.90;;;16.29;70.64;101839.53;5055433;28;20052;-68
2022/07/28 06:29:21;;;;;;;10.60;3.97;;;16.10;99.90;;;16.43;71.38;101845.59;5055394;28;20063;-68
2022/07/28 06:31:50;;;;;;;8.52;4.07;;;16.10;99.90;;;16.66;69.70;101842.63;5055078;28;20087;-68
2022/07/28 06:34:19;;;;;;;10.85;4.60;;;16.30;99.90;;;16.37;70.18;101845.66;5055198;28;20048;-68
2022/07/28 06:36:50;;;;;;;8.85;4.30;;;16.20;99.90;;;16.43;70.66;101828.69;5055581;28;20505;-68
2022/07/28 06:39:18;;;;;;;10.77;4.20;;;16.20;99.90;;;16.77;69.26;101840.69;5054173;28;20144;-68
2022/07/28 06:41:48;;;;;;;6.60;4.22;;;16.40;99.90;;;16.57;69.82;101838.28;5055034;28;20110;-68
2022/07/28 06:44:19;;;;;;;20.00;4.63;;;16.30;99.90;;;16.75;69.89;101842.50;5054182;28;20041;-68
2022/07/28 06:46:48;;;;;;;8.10;3.90;;;16.30;99.90;;;16.65;69.67;101838.19;5055094;28;20048;-68
2022/07/28 06:49:18;;;;;;;10.07;3.95;;;16.30;99.90;;;16.69;69.06;101829.22;5055066;28;20053;-67
2022/07/28 06:51:47;;;;;;;12.05;4.30;;;16.40;99.90;;;16.66;69.20;101827.50;5054937;28;20055;-68
2022/07/28 06:54:16;;;;;;;10.48;4.28;;;16.40;99.90;;;16.93;69.21;101832.44;5054941;28;20040;-69
2022/07/28 06:56:45;;;;;;;12.60;4.60;;;16.60;99.90;;;17.52;67.77;101849.31;5070693;28;20132;-67
2022/07/28 06:59:16;;;;;;;10.57;4.57;;;17.00;99.90;;;17.70;66.65;101849.91;5054793;28;20051;-71
2022/07/28 07:01:45;;;;;;;10.27;4.40;;;17.30;99.90;;;17.64;66.32;101849.13;5054586;28;20052;-67
2022/07/28 07:04:13;;;;;;;9.57;4.07;;;17.40;99.90;;;17.61;67.26;101846.50;5053763;28;20048;-69
2022/07/28 07:06:43;;;;;;;7.10;3.83;;;17.30;99.90;;;17.82;66.50;101848.81;5054667;28;20491;-70
2022/07/28 07:09:12;;;;;;;7.23;3.93;;;17.40;99.90;;;18.06;65.34;101840.28;5055022;28;20045;-69
2022/07/28 07:11:40;;;;;;;12.10;3.80;;;17.70;99.90;;;17.29;65.97;101848.78;5054523;28;20345;-71
2022/07/28 07:14:09;;;;;;;5.95;3.70;;;17.20;99.90;;;16.89;67.66;101841.41;5053569;28;20091;-68
2022/07/28 07:16:37;;;;;;;13.23;4.13;;;16.70;99.90;;;17.28;67.66;101836.34;5054855;28;20103;-70
2022/07/28 07:19:06;;;;;;;9.05;3.65;;;16.80;99.90;;;17.60;65.93;101840.28;5054431;28;20044;-71
2022/07/28 07:21:37;;;;;;;6.55;3.58;;;17.20;99.90;;;17.46;65.79;101836.91;5054741;28;20129;-70
2022/07/28 07:24:10;;;;;;;7.20;3.55;;;17.20;99.90;;;17.53;66.23;101833.28;5086942;28;20037;-69
2022/07/28 07:26:39;;;;;;;5.85;3.72;;;17.20;99.90;;;17.63;64.48;101821.50;5054658;28;20045;-70
2022/07/28 07:29:09;;;;;;;5.93;3.70;;;17.40;99.90;;;17.85;63.87;101832.66;5054602;28;20045;-69
2022/07/28 07:31:40;;;;;;;6.97;3.85;;;17.40;99.90;;;17.59;64.51;101841.19;5052889;28;20045;-70
2022/07/28 07:34:08;;;;;;;7.13;3.90;;;17.30;99.90;;;17.51;62.65;101844.91;5054225;28;20094;-70
2022/07/28 07:36:39;;;;;;;7.00;3.30;;;17.20;99.90;;;17.73;63.63;101833.78;5054088;28;20383;-70
2022/07/28 07:39:09;;;;;;;7.13;4.15;;;17.30;99.90;;;18.27;61.98;101845.25;5054026;28;20037;-70
2022/07/28 07:41:38;;;;;;;5.57;3.42;;;17.70;99.90;;;18.42;62.20;101836.91;5054123;28;20041;-70
2022/07/28 07:44:06;;;;;;;8.93;4.60;;;18.00;99.90;;;18.07;60.91;101828.69;5054095;28;20210;-70
2022/07/28 07:46:37;;;;;;;7.10;3.45;;;17.90;99.90;;;18.50;61.57;101843.00;5053989;28;20076;-70
2022/07/28 07:49:06;;;;;;;7.70;3.83;;;18.00;99.90;;;18.75;58.65;101837.97;5053895;28;20049;-70
2022/07/28 07:51:34;;;;;;;7.50;3.50;;;18.40;99.90;;;18.89;56.69;101849.28;5053750;28;20124;-71
2022/07/28 07:54:03;;;;;;;4.55;3.40;;;18.60;99.90;;;18.57;57.24;101841.06;5054018;28;20052;-70
2022/07/28 07:56:33;;;;;;;4.95;3.03;;;18.40;99.90;;;18.06;58.07;101810.84;5053712;28;20029;-70
2022/07/28 07:59:01;;;;;;;5.10;3.23;;;18.10;99.90;;;17.67;58.25;101740.22;5052572;28;20139;-70
2022/07/28 08:01:30;;;;;;;6.07;3.70;;;18.00;99.90;;;18.36;57.67;101802.19;5053354;28;20057;-70
2022/07/28 08:03:59;;;;;;;7.78;3.40;;;18.20;99.90;;;18.39;58.15;101834.25;5053482;28;20056;-70
2022/07/28 08:06:30;;;;;;;5.80;3.38;;;18.10;99.90;;;18.40;57.34;101846.75;5053600;28;20045;-69
2022/07/28 08:08:58;;;;;;;7.50;3.33;;;18.10;99.90;;;17.99;59.03;101831.50;5053577;28;20073;-70
2022/07/28 08:11:27;;;;;;;5.68;3.90;;;17.80;99.90;;;18.44;58.26;101821.69;5053443;28;20045;-70
2022/07/28 08:13:56;;;;;;;9.18;3.50;;;18.00;99.90;;;18.60;57.37;101792.75;5052892;28;20071;-70
2022/07/28 08:16:25;;;;;;;7.37;3.60;;;18.40;99.90;;;19.18;56.03;101829.81;5053339;28;20053;-70
2022/07/28 08:18:57;;;;;;;7.35;3.55;;;18.80;99.90;;;19.23;54.79;101807.31;5053638;28;20068;-70
2022/07/28 08:21:25;;;;;;;6.15;3.50;;;19.00;99.90;;;19.60;53.94;101831.44;5052417;28;20048;-70
2022/07/28 08:23:56;;;;;;;4.00;2.83;;;19.20;99.90;;;19.32;53.65;101839.31;5052077;28;20135;-70
2022/07/28 08:26:27;;;;;;;7.55;3.28;;;19.20;99.90;;;18.97;54.60;101825.81;5053785;28;20045;-69
2022/07/28 08:28:57;;;;;;;7.43;3.22;;;18.90;99.90;;;18.87;55.26;101832.34;5053490;28;20056;-70
2022/07/28 08:31:26;;;;;;;6.32;2.95;;;18.60;99.90;;;18.55;56.04;101826.81;5053046;28;20463;-70
2022/07/28 08:33:57;;;;;;;8.63;3.75;;;18.40;99.90;;;18.42;56.03;101834.25;5053294;28;20041;-70
2022/07/28 08:36:25;;;;;;;5.25;3.20;;;18.20;99.90;;;18.58;55.18;101837.47;5053019;28;20487;-70
2022/07/28 08:38:53;;;;;;;4.97;3.47;;;18.30;99.90;;;18.56;55.64;101824.09;5052996;28;20052;-69
2022/07/28 08:41:26;;;;;;;7.88;3.47;;;18.30;99.90;;;18.59;55.22;101823.13;5053197;28;20049;-71
2022/07/28 08:44:03;;;;;;;8.38;3.42;;;18.30;99.90;;;19.00;56.54;101830.25;5053537;28;20106;-75
2022/07/28 08:46:35;;;;;;;4.63;3.30;;;18.60;99.90;;;19.35;55.51;101811.53;5053019;28;20056;-76
2022/07/28 08:49:08;;;;;;;5.25;3.17;;;18.90;99.90;;;19.68;52.17;101821.38;5053305;28;20060;-77
2022/07/28 08:51:37;;;;;;;10.07;3.38;;;19.30;99.90;;;19.41;53.64;101814.06;5052826;28;20461;-78
2022/07/28 08:54:07;;;;;;;5.75;3.50;;;19.20;99.90;;;19.53;53.25;101824.47;5051722;28;20052;-78
2022/07/28 08:56:40;;;;;;;5.85;3.50;;;19.20;99.90;;;19.33;53.96;101826.78;5052680;28;20041;-78
2022/07/28 08:59:17;;;;;;;5.47;3.22;;;19.10;99.90;;;19.47;53.70;101832.69;5052739;28;20140;-79
2022/07/28 09:01:46;;;;;;;5.10;3.35;;;19.10;99.90;;;19.22;53.22;101832.38;5052643;28;20095;-77
2022/07/28 09:04:16;;;;;;;6.18;3.33;;;19.00;99.90;;;19.30;54.06;101825.00;5052732;28;20498;-77
2022/07/28 09:06:45;;;;;;;3.00;2.70;;;19.00;99.90;;;19.74;52.17;101837.34;5052796;28;20041;-77
2022/07/28 09:09:13;;;;;;;6.40;3.22;;;19.30;99.90;;;19.36;54.40;101821.31;5052939;28;20037;-78
2022/07/28 09:11:42;;;;;;;5.68;3.30;;;19.10;99.90;;;19.79;52.35;101809.44;5052897;28;20045;-76
2022/07/28 09:14:10;;;;;;;5.60;3.28;;;19.50;99.90;;;19.69;52.15;101823.13;5052726;28;20507;-77
2022/07/28 09:16:40;;;;;;;6.85;3.55;;;19.40;99.90;;;19.85;51.78;101834.34;5051674;28;20080;-77
2022/07/28 09:19:09;;;;;;;5.93;3.47;;;19.50;99.90;;;19.86;53.18;101846.88;5052699;28;20506;-75
2022/07/28 09:21:37;;;;;;;5.32;3.17;;;19.60;99.90;;;19.53;52.77;101837.91;5052922;28;20487;-76
2022/07/28 09:24:07;;;;;;;5.47;3.20;;;19.30;99.90;;;19.55;54.20;101828.00;5053419;28;20505;-75
2022/07/28 09:26:35;;;;;;;10.50;3.60;;;19.10;99.90;;;19.87;54.35;101801.16;5056549;28;20514;-73
2022/07/28 09:29:06;;;;;;;8.27;3.42;;;19.50;99.90;;;20.11;52.18;101821.09;5055460;28;20049;-71
2022/07/28 09:31:34;;;;;;;;;;;19.70;99.90;;;20.50;50.79;101818.16;5056884;28;20072;-70
2022/07/28 09:34:05;;;;;;;5.05;3.20;;;20.10;99.90;;;20.89;50.41;101818.72;5056653;28;19952;-73
2022/07/28 09:36:39;;;;;;;4.57;2.85;;;20.50;99.90;;;21.27;49.89;101817.53;5056437;28;20052;-71
2022/07/28 09:39:08;;;;;;;7.13;3.20;;;20.90;99.90;;;21.41;49.25;101818.81;5056477;28;20135;-71
2022/07/28 09:41:48;;;;;;;5.10;3.47;;;21.10;99.90;;;21.70;48.15;101825.88;5056809;28;20041;-70
2022/07/28 09:44:19;;;;;;;3.10;2.70;;;21.30;99.90;;;22.02;47.78;101827.47;5056281;28;20517;-71
2022/07/28 09:46:48;;;;;;;4.60;3.28;;;21.70;99.90;;;21.88;47.01;101760.63;5056476;28;20111;-71
2022/07/28 09:49:18;;;;;;;5.45;3.38;;;21.90;99.90;;;21.58;46.40;101686.28;5071821;28;20036;-71
2022/07/28 09:52:02;;;;;;;7.53;3.53;;;22.10;99.90;;;21.93;47.03;101808.97;5055996;28;20045;-71
2022/07/28 09:54:30;;;;;;;3.92;2.97;;;21.80;99.90;;;21.91;46.80;101798.19;5056163;28;20403;-72
2022/07/28 09:56:59;;;;;;;4.88;2.83;;;21.70;99.90;;;21.81;46.13;101804.88;5056318;28;20044;-69
2022/07/28 09:59:41;;;;;;;34.00;27.40;;;21.60;99.90;;;21.99;46.92;101797.97;5055710;28;20490;-73
2022/07/28 10:02:13;;;;;;;23.25;19.95;;;21.60;99.90;;;22.23;46.53;101806.00;5055966;28;20052;-71
2022/07/28 10:04:43;;;;;;;12.70;9.60;;;21.80;99.90;;;22.37;46.61;101783.91;5056120;28;20072;-72
2022/07/28 10:07:15;;;;;;;4.10;3.17;;;22.10;99.90;;;22.48;45.37;101789.75;5055856;28;20052;-73
2022/07/28 10:09:56;;;;;;;5.13;3.13;;;22.20;99.90;;;22.57;45.87;101797.53;5056104;28;20037;-70
2022/07/28 10:12:26;;;;;;;6.20;3.35;;;22.20;99.90;;;22.28;46.41;101690.75;5054832;28;20049;-70
2022/07/28 10:14:59;;;;;;;3.55;2.88;;;22.50;99.90;;;22.66;44.56;101799.88;5055811;28;20040;-70
2022/07/28 10:17:30;;;;;;;5.28;3.13;;;22.50;99.90;;;22.62;44.98;101795.53;5056010;28;20103;-71
2022/07/28 10:20:04;;;;;;;5.22;2.50;;;22.40;99.90;;;22.75;45.45;101769.81;5055911;28;20495;-70
2022/07/28 10:22:36;;;;;;;5.43;3.05;;;22.50;99.90;;;22.91;45.81;101757.47;5055526;28;20210;-71
2022/07/28 10:25:11;;;;;;;4.78;3.00;;;22.70;99.90;;;22.40;44.92;101689.41;5055844;28;20102;-74
2022/07/28 10:27:42;;;;;;;5.57;2.80;;;22.70;99.90;;;22.53;44.45;101795.00;5055730;28;20053;-71
2022/07/28 10:30:13;;;;;;;3.85;3.30;;;22.40;99.90;;;22.35;45.47;101792.06;5055585;28;20044;-73
2022/07/28 10:32:44;;;;;;;5.10;3.00;;;22.00;99.90;;;22.69;45.52;101783.56;5055178;28;20045;-72
2022/07/28 10:35:15;;;;;;;3.70;3.05;;;22.20;99.90;;;23.00;44.71;101775.97;5055349;28;20056;-72